Uaua, Brazil
Current Conditions -  °F | °C
As of 3:00 PM on Saturday 20 Dec 2014 (Local Time) from SBPL Reporting Station
Scattered Clouds Scattered Clouds  
Wind Chill: 86°   Ceiling: Unl
Heat Index: 95°   Visibility: 6mi
Dew Point: 75°   Wind: 6mph
Humidity: 70%   Direction: 150°SSE
Pressure: 29.88"   Gusts: NA
Location:  9.84°S, 39.48°W
Report Text: SBPL 201800Z 15005KT 9999 FEW023 SCT090 30/24 Q1012
Loading
Personal Weather Stations






























Interactive Weather Map New forecast layout! Learn more

10-Day Weather Forecast

Advertisements
Track Severe Weather on mobile